Time;durP1;ratioP1;P1;durP2;ratioP2;P2;SDS_P1;SDS_P2;PMS_P1;PMS_P2;Temp;Humidity;BMP_temperature;BMP_pressure;BME280_temperature;BME280_humidity;BME280_pressure;Samples;Min_cycle;Max_cycle;Signal;HPM_P1;HPM_P2
2022/11/23 00:00:54;;;;;;;20.33;11.43;;;;;;;;;;5025036;28;20186;-78
2022/11/23 00:03:19;;;;;;;16.70;11.00;;;;;;;;;;5039914;28;20231;-78
2022/11/23 00:05:44;;;;;;;18.33;11.43;;;;;;;;;;5050397;28;20182;-78
2022/11/23 00:08:09;;;;;;;17.43;12.37;;;;;;;;;;5022672;28;20203;-78
2022/11/23 00:10:35;;;;;;;20.63;11.93;;;;;;;;;;5047153;28;20204;-77
2022/11/23 00:13:00;;;;;;;27.03;12.87;;;;;;;;;;5041901;28;20193;-78
2022/11/23 00:15:25;;;;;;;17.23;10.63;;;;;;;;;;5046598;28;20184;-78
2022/11/23 00:17:50;;;;;;;17.20;11.53;;;;;;;;;;5048946;28;20265;-78
2022/11/23 00:20:15;;;;;;;22.90;11.97;;;;;;;;;;5044227;28;20187;-78
2022/11/23 00:22:41;;;;;;;20.20;11.40;;;;;;;;;;5048356;28;20182;-78
2022/11/23 00:25:06;;;;;;;18.60;11.67;;;;;;;;;;5041642;28;20206;-78
2022/11/23 00:27:31;;;;;;;18.50;12.27;;;;;;;;;;5025182;28;20183;-78
2022/11/23 00:29:56;;;;;;;21.87;11.83;;;;;;;;;;5027464;28;20200;-78
2022/11/23 00:32:22;;;;;;;18.53;11.17;;;;;;;;;;5025646;28;20170;-79
2022/11/23 00:34:47;;;;;;;21.17;11.17;;;;;;;;;;5040623;28;20672;-79
2022/11/23 00:37:12;;;;;;;19.10;11.87;;;;;;;;;;5036571;28;20222;-79
2022/11/23 00:39:37;;;;;;;22.83;11.47;;;;;;;;;;5039647;28;20198;-79
2022/11/23 00:42:02;;;;;;;22.60;10.70;;;;;;;;;;5023044;28;20186;-79
2022/11/23 00:44:28;;;;;;;21.67;11.83;;;;;;;;;;5038720;28;20192;-79
2022/11/23 00:46:53;;;;;;;27.07;11.77;;;;;;;;;;5029086;28;20197;-79
2022/11/23 00:49:18;;;;;;;27.60;12.47;;;;;;;;;;5030660;28;20649;-79
2022/11/23 00:51:43;;;;;;;23.37;11.90;;;;;;;;;;5016581;28;20212;-78
2022/11/23 00:54:08;;;;;;;22.43;11.50;;;;;;;;;;5033489;28;20189;-79
2022/11/23 00:56:34;;;;;;;22.80;11.93;;;;;;;;;;5032589;28;20703;-78
2022/11/23 00:59:00;;;;;;;25.03;11.33;;;;;;;;;;5022443;28;20281;-79
2022/11/23 01:01:26;;;;;;;19.83;11.30;;;;;;;;;;5034580;28;20670;-79
2022/11/23 01:03:52;;;;;;;20.70;13.33;;;;;;;;;;5016436;28;20183;-79
2022/11/23 01:06:19;;;;;;;19.63;11.47;;;;;;;;;;5014485;28;20194;-78
2022/11/23 01:08:48;;;;;;;19.63;11.00;;;;;;;;;;5038090;28;20288;-79
2022/11/23 01:11:13;;;;;;;21.50;10.87;;;;;;;;;;5020354;28;20377;-78
2022/11/23 01:13:41;;;;;;;18.67;11.83;;;;;;;;;;5035768;28;20256;-79
2022/11/23 01:16:08;;;;;;;19.50;10.80;;;;;;;;;;5017847;28;20640;-78
2022/11/23 01:18:33;;;;;;;19.57;10.57;;;;;;;;;;5027230;28;20277;-79
2022/11/23 01:20:59;;;;;;;22.77;11.83;;;;;;;;;;5026795;28;20709;-79
2022/11/23 01:23:27;;;;;;;18.87;9.80;;;;;;;;;;5032133;28;20232;-80
2022/11/23 01:25:52;;;;;;;22.10;10.37;;;;;;;;;;5031421;28;20178;-79
2022/11/23 01:28:17;;;;;;;23.37;10.10;;;;;;;;;;5018666;28;20629;-79
2022/11/23 01:30:42;;;;;;;24.77;10.83;;;;;;;;;;5033984;28;20189;-78
2022/11/23 01:33:07;;;;;;;22.50;11.13;;;;;;;;;;5030114;28;20579;-78
2022/11/23 01:35:33;;;;;;;21.93;11.27;;;;;;;;;;5014992;28;20320;-79
2022/11/23 01:37:58;;;;;;;19.90;10.60;;;;;;;;;;5015385;28;20198;-78
2022/11/23 01:40:23;;;;;;;20.03;10.67;;;;;;;;;;5046193;28;20225;-78
2022/11/23 01:42:54;;;;;;;20.10;10.33;;;;;;;;;;5044328;28;20206;-78
2022/11/23 01:45:29;;;;;;;21.20;10.40;;;;;;;;;;5043344;28;20217;-77
2022/11/23 01:47:54;;;;;;;19.57;10.10;;;;;;;;;;5033346;28;20209;-78
2022/11/23 01:50:19;;;;;;;16.93;9.10;;;;;;;;;;5030264;28;20178;-77
2022/11/23 01:52:44;;;;;;;23.13;10.40;;;;;;;;;;5044320;28;20161;-78
2022/11/23 01:55:09;;;;;;;17.10;9.70;;;;;;;;;;5052798;28;20183;-77
2022/11/23 01:57:37;;;;;;;17.43;9.43;;;;;;;;;;5049151;28;20155;-77
2022/11/23 02:00:03;;;;;;;19.83;9.80;;;;;;;;;;5048208;28;20174;-78
2022/11/23 02:02:29;;;;;;;22.20;10.03;;;;;;;;;;5034828;28;20174;-77
2022/11/23 02:04:56;;;;;;;21.30;9.77;;;;;;;;;;5034622;28;20189;-78
2022/11/23 02:07:23;;;;;;;21.67;9.70;;;;;;;;;;5052011;28;20212;-78
2022/11/23 02:09:49;;;;;;;18.80;8.57;;;;;;;;;;5037854;28;20210;-79
2022/11/23 02:12:14;;;;;;;16.03;8.70;;;;;;;;;;5052818;28;20182;-78
2022/11/23 02:14:40;;;;;;;17.73;8.77;;;;;;;;;;5054617;28;20205;-77
2022/11/23 02:17:05;;;;;;;18.20;8.77;;;;;;;;;;5045283;28;20179;-77
2022/11/23 02:19:39;;;;;;;18.23;9.07;;;;;;;;;;5051132;28;20213;-78
2022/11/23 02:22:08;;;;;;;13.77;8.23;;;;;;;;;;5043095;28;20258;-77
2022/11/23 02:24:36;;;;;;;19.03;9.60;;;;;;;;;;5052226;28;20162;-78
2022/11/23 02:27:01;;;;;;;21.27;9.40;;;;;;;;;;5050169;28;20191;-77
2022/11/23 02:29:27;;;;;;;17.00;9.07;;;;;;;;;;5048782;28;20230;-78
2022/11/23 02:31:53;;;;;;;21.00;8.20;;;;;;;;;;5028997;28;20580;-79
2022/11/23 02:34:18;;;;;;;17.97;10.07;;;;;;;;;;5042636;28;20206;-79
2022/11/23 02:36:45;;;;;;;20.13;9.90;;;;;;;;;;5017617;28;20249;-79
2022/11/23 02:39:27;;;;;;;19.53;9.50;;;;;;;;;;5026990;28;20199;-78
2022/11/23 02:41:53;;;;;;;15.13;8.60;;;;;;;;;;5048421;28;20182;-78
2022/11/23 02:44:37;;;;;;;15.13;8.20;;;;;;;;;;5034213;28;20178;-78
2022/11/23 02:47:03;;;;;;;19.47;8.40;;;;;;;;;;5045589;28;20174;-78
2022/11/23 02:49:28;;;;;;;14.63;7.93;;;;;;;;;;5028094;28;20611;-78
2022/11/23 02:51:54;;;;;;;13.17;8.33;;;;;;;;;;5036646;28;20182;-78
2022/11/23 02:54:19;;;;;;;21.37;7.87;;;;;;;;;;5009266;28;20179;-78
2022/11/23 02:56:44;;;;;;;19.23;8.47;;;;;;;;;;5031627;28;20616;-78
2022/11/23 02:59:09;;;;;;;14.90;7.87;;;;;;;;;;5014799;28;20207;-79
2022/11/23 03:01:35;;;;;;;20.17;9.37;;;;;;;;;;5031023;28;20185;-79
2022/11/23 03:04:00;;;;;;;16.80;7.83;;;;;;;;;;5024084;28;20185;-79
2022/11/23 03:06:25;;;;;;;18.10;8.47;;;;;;;;;;5032354;28;20189;-79
2022/11/23 03:08:50;;;;;;;15.27;8.83;;;;;;;;;;5021208;28;20201;-78
2022/11/23 03:11:16;;;;;;;15.47;8.37;;;;;;;;;;5030889;28;20300;-78
2022/11/23 03:13:41;;;;;;;14.47;8.80;;;;;;;;;;5042808;28;20166;-78
2022/11/23 03:16:07;;;;;;;12.93;8.87;;;;;;;;;;5038791;28;20170;-78
2022/11/23 03:18:32;;;;;;;15.30;7.97;;;;;;;;;;5036409;28;20575;-78
2022/11/23 03:21:01;;;;;;;13.90;9.33;;;;;;;;;;5038105;28;20185;-78
2022/11/23 03:23:26;;;;;;;15.63;8.97;;;;;;;;;;5030967;28;20540;-78
2022/11/23 03:25:55;;;;;;;19.03;9.40;;;;;;;;;;5039006;28;20222;-77
2022/11/23 03:28:20;;;;;;;14.57;8.53;;;;;;;;;;5035158;28;20273;-79
2022/11/23 03:30:46;;;;;;;13.60;8.17;;;;;;;;;;5035324;28;20166;-80
2022/11/23 03:33:11;;;;;;;17.77;9.00;;;;;;;;;;5029724;28;20179;-79
2022/11/23 03:35:37;;;;;;;18.17;8.57;;;;;;;;;;5035468;28;20198;-80
2022/11/23 03:38:02;;;;;;;11.17;8.00;;;;;;;;;;5027921;28;20346;-80
2022/11/23 03:40:27;;;;;;;13.40;8.67;;;;;;;;;;5028428;28;20624;-80
2022/11/23 03:42:53;;;;;;;15.20;8.23;;;;;;;;;;5027917;28;20187;-79
2022/11/23 03:45:18;;;;;;;17.10;9.43;;;;;;;;;;5029916;28;20185;-80
2022/11/23 03:47:43;;;;;;;14.30;8.40;;;;;;;;;;5016617;28;20722;-80
2022/11/23 03:50:08;;;;;;;18.47;8.87;;;;;;;;;;5025223;28;20190;-80
2022/11/23 03:52:33;;;;;;;18.67;9.30;;;;;;;;;;5004445;28;20189;-80
2022/11/23 03:54:59;;;;;;;18.60;8.93;;;;;;;;;;5022821;28;20204;-80
2022/11/23 03:57:24;;;;;;;18.60;9.57;;;;;;;;;;5027507;28;20217;-80
2022/11/23 03:59:49;;;;;;;19.37;8.43;;;;;;;;;;5034358;28;20676;-80
2022/11/23 04:02:14;;;;;;;14.43;8.67;;;;;;;;;;5023473;28;20182;-80
2022/11/23 04:04:39;;;;;;;12.87;8.77;;;;;;;;;;5017031;28;20178;-80
2022/11/23 04:07:04;;;;;;;12.17;8.47;;;;;;;;;;5031735;28;20530;-81
2022/11/23 04:09:30;;;;;;;13.07;7.80;;;;;;;;;;5015778;28;20214;-80
2022/11/23 04:11:55;;;;;;;15.93;8.63;;;;;;;;;;5029431;28;20187;-80
2022/11/23 04:14:20;;;;;;;14.13;7.90;;;;;;;;;;5028021;28;20209;-80
2022/11/23 04:16:45;;;;;;;12.80;7.73;;;;;;;;;;5035523;28;20213;-80
2022/11/23 04:19:10;;;;;;;15.67;8.27;;;;;;;;;;5019766;28;20198;-79
2022/11/23 04:21:36;;;;;;;12.67;8.33;;;;;;;;;;5022303;28;20286;-79
2022/11/23 04:24:01;;;;;;;13.03;6.77;;;;;;;;;;5034183;28;20245;-78
2022/11/23 04:26:26;;;;;;;10.90;7.33;;;;;;;;;;5028712;28;20201;-79
2022/11/23 04:28:51;;;;;;;15.40;7.73;;;;;;;;;;5018538;28;20714;-79
2022/11/23 04:31:16;;;;;;;14.50;7.93;;;;;;;;;;5028336;28;20228;-79
2022/11/23 04:33:42;;;;;;;11.30;7.50;;;;;;;;;;5026788;28;20174;-79
2022/11/23 04:36:07;;;;;;;12.53;7.47;;;;;;;;;;5034389;28;20522;-80
2022/11/23 04:38:32;;;;;;;13.40;8.07;;;;;;;;;;5014903;28;20581;-79
2022/11/23 04:40:57;;;;;;;17.47;6.87;;;;;;;;;;5031849;28;20210;-79
2022/11/23 04:43:22;;;;;;;11.70;7.27;;;;;;;;;;5030530;28;20229;-79
2022/11/23 04:45:48;;;;;;;14.63;7.20;;;;;;;;;;5016941;28;20672;-79
2022/11/23 04:48:13;;;;;;;11.57;7.60;;;;;;;;;;5022023;28;20226;-79
2022/11/23 04:50:40;;;;;;;11.50;6.83;;;;;;;;;;5008344;28;20206;-79
2022/11/23 04:53:05;;;;;;;16.33;7.53;;;;;;;;;;5027241;28;20170;-79
2022/11/23 04:55:30;;;;;;;12.40;6.77;;;;;;;;;;5032731;28;20189;-79
2022/11/23 04:57:56;;;;;;;12.53;7.30;;;;;;;;;;5014359;28;20206;-79
2022/11/23 05:00:21;;;;;;;16.30;7.30;;;;;;;;;;5028512;28;20186;-79
2022/11/23 05:02:46;;;;;;;10.90;6.80;;;;;;;;;;5033137;28;20178;-79
2022/11/23 05:05:11;;;;;;;13.03;6.57;;;;;;;;;;5012514;28;20174;-78
2022/11/23 05:07:36;;;;;;;13.27;7.13;;;;;;;;;;5031106;28;20186;-79
2022/11/23 05:10:02;;;;;;;15.00;7.00;;;;;;;;;;5032468;28;20174;-79
2022/11/23 05:12:27;;;;;;;11.20;5.97;;;;;;;;;;5023858;28;20191;-79
2022/11/23 05:14:52;;;;;;;18.10;7.33;;;;;;;;;;5030651;28;20193;-79
2022/11/23 05:17:18;;;;;;;12.50;6.20;;;;;;;;;;5029966;28;20178;-79
2022/11/23 05:19:44;;;;;;;14.63;6.27;;;;;;;;;;5028251;28;20608;-80
2022/11/23 05:22:09;;;;;;;13.87;5.90;;;;;;;;;;5023853;28;20187;-80
2022/11/23 05:24:34;;;;;;;9.07;4.77;;;;;;;;;;5014257;28;20694;-79
2022/11/23 05:26:59;;;;;;;12.67;6.00;;;;;;;;;;5028189;28;20258;-79
2022/11/23 05:29:24;;;;;;;9.77;4.87;;;;;;;;;;5031326;28;20279;-79
2022/11/23 05:31:50;;;;;;;8.77;4.90;;;;;;;;;;5024206;28;20189;-80
2022/11/23 05:34:15;;;;;;;14.87;5.27;;;;;;;;;;5028636;28;20193;-79
2022/11/23 05:36:40;;;;;;;8.50;5.10;;;;;;;;;;5013191;28;20216;-80
2022/11/23 05:39:05;;;;;;;12.60;5.13;;;;;;;;;;5032854;28;20198;-80
2022/11/23 05:41:31;;;;;;;10.73;4.83;;;;;;;;;;5007531;28;20179;-79
2022/11/23 05:43:56;;;;;;;12.37;4.97;;;;;;;;;;5028214;28;20751;-79
2022/11/23 05:46:21;;;;;;;8.20;4.77;;;;;;;;;;5013709;28;20178;-79
2022/11/23 05:48:46;;;;;;;11.17;6.20;;;;;;;;;;5027531;28;20209;-79
2022/11/23 05:51:11;;;;;;;9.50;5.80;;;;;;;;;;5022744;28;20661;-79
2022/11/23 05:53:36;;;;;;;13.00;5.73;;;;;;;;;;5018394;28;20493;-79
2022/11/23 05:56:02;;;;;;;13.73;6.13;;;;;;;;;;5028981;28;20182;-79
2022/11/23 05:58:27;;;;;;;13.93;5.47;;;;;;;;;;5008839;28;20710;-79
2022/11/23 06:00:57;;;;;;;14.83;5.73;;;;;;;;;;5029736;28;20549;-80
2022/11/23 06:03:22;;;;;;;10.90;5.93;;;;;;;;;;5026292;28;20269;-79
2022/11/23 06:05:47;;;;;;;17.13;6.30;;;;;;;;;;5021062;28;20619;-79
2022/11/23 06:08:13;;;;;;;13.33;6.40;;;;;;;;;;5013492;28;20206;-79
2022/11/23 06:10:38;;;;;;;16.27;6.63;;;;;;;;;;5034575;28;20179;-79
2022/11/23 06:13:03;;;;;;;16.00;7.63;;;;;;;;;;5023011;28;20652;-79
2022/11/23 06:15:28;;;;;;;15.30;6.90;;;;;;;;;;5022627;28;20222;-79
2022/11/23 06:17:57;;;;;;;15.30;7.53;;;;;;;;;;5026275;28;20198;-79
2022/11/23 06:20:22;;;;;;;12.50;6.83;;;;;;;;;;5028647;28;20656;-79
2022/11/23 06:22:54;;;;;;;8.23;6.00;;;;;;;;;;5023822;28;20470;-79
2022/11/23 06:25:19;;;;;;;12.83;5.57;;;;;;;;;;5021093;28;20394;-79
2022/11/23 06:27:54;;;;;;;12.20;5.53;;;;;;;;;;5027013;28;20198;-79
2022/11/23 06:30:20;;;;;;;15.50;5.30;;;;;;;;;;5028654;28;20189;-79
2022/11/23 06:32:45;;;;;;;11.30;4.77;;;;;;;;;;5029030;28;20535;-79
2022/11/23 06:35:10;;;;;;;11.73;4.63;;;;;;;;;;5026808;28;20215;-79
2022/11/23 06:37:35;;;;;;;13.20;4.03;;;;;;;;;;5029693;28;20181;-79
2022/11/23 06:40:00;;;;;;;11.87;3.53;;;;;;;;;;5022813;28;20216;-79
2022/11/23 06:42:26;;;;;;;12.03;3.40;;;;;;;;;;5028064;28;20268;-79
2022/11/23 06:44:51;;;;;;;8.53;2.60;;;;;;;;;;5024764;28;20674;-79
2022/11/23 06:47:16;;;;;;;8.50;2.77;;;;;;;;;;5025308;28;20185;-79
2022/11/23 06:49:41;;;;;;;7.63;2.17;;;;;;;;;;5024570;28;20217;-79
2022/11/23 06:52:07;;;;;;;14.63;2.33;;;;;;;;;;5021062;28;20182;-80
2022/11/23 06:54:32;;;;;;;19.40;2.97;;;;;;;;;;5021840;28;20591;-80
2022/11/23 06:56:57;;;;;;;6.80;1.97;;;;;;;;;;5012611;28;20266;-80
2022/11/23 06:59:22;;;;;;;12.13;4.27;;;;;;;;;;5020031;28;20286;-79
2022/11/23 07:01:49;;;;;;;10.30;2.03;;;;;;;;;;5022575;28;20186;-79
2022/11/23 07:04:14;;;;;;;7.53;2.10;;;;;;;;;;5013291;28;20560;-79
2022/11/23 07:06:40;;;;;;;9.73;2.50;;;;;;;;;;5027172;28;20179;-78
2022/11/23 07:09:05;;;;;;;11.37;2.40;;;;;;;;;;5013467;28;20256;-79
2022/11/23 07:11:30;;;;;;;12.07;2.10;;;;;;;;;;5030983;28;20261;-79
2022/11/23 07:13:56;;;;;;;8.60;2.17;;;;;;;;;;5025661;28;20241;-79
2022/11/23 07:16:21;;;;;;;9.60;2.60;;;;;;;;;;5024943;28;20174;-79
2022/11/23 07:18:46;;;;;;;8.40;2.50;;;;;;;;;;5018891;28;20568;-79
2022/11/23 07:21:11;;;;;;;11.27;2.57;;;;;;;;;;5027280;28;20261;-79
2022/11/23 07:23:39;;;;;;;10.83;3.50;;;;;;;;;;5008893;28;20690;-79
2022/11/23 07:26:05;;;;;;;6.60;2.23;;;;;;;;;;5003069;28;20178;-79
2022/11/23 07:28:30;;;;;;;7.40;2.27;;;;;;;;;;5001763;28;20618;-78
2022/11/23 07:30:55;;;;;;;11.13;2.37;;;;;;;;;;5028853;28;20178;-78
2022/11/23 07:33:20;;;;;;;12.53;2.30;;;;;;;;;;5032283;28;20301;-79
2022/11/23 07:35:47;;;;;;;13.37;1.80;;;;;;;;;;5030423;28;20174;-78
2022/11/23 07:38:12;;;;;;;11.20;2.40;;;;;;;;;;5020337;28;20211;-78
2022/11/23 07:40:37;;;;;;;10.93;2.40;;;;;;;;;;5024207;28;20175;-78
2022/11/23 07:43:03;;;;;;;6.23;1.90;;;;;;;;;;5031804;28;20537;-79
2022/11/23 07:45:29;;;;;;;14.63;2.47;;;;;;;;;;5027060;28;20186;-79
2022/11/23 07:47:58;;;;;;;6.83;2.30;;;;;;;;;;5029143;28;20242;-78
2022/11/23 07:50:23;;;;;;;16.07;2.47;;;;;;;;;;5028027;28;20193;-78
2022/11/23 07:52:48;;;;;;;8.77;1.97;;;;;;;;;;5028088;28;20688;-78
2022/11/23 07:55:13;;;;;;;12.30;2.10;;;;;;;;;;5011312;28;20260;-79
2022/11/23 07:57:38;;;;;;;6.67;2.17;;;;;;;;;;5030711;28;20185;-78
2022/11/23 08:00:04;;;;;;;9.30;2.50;;;;;;;;;;5021842;28;20652;-78
2022/11/23 08:02:29;;;;;;;9.30;3.20;;;;;;;;;;5025928;28;20289;-78
2022/11/23 08:04:55;;;;;;;9.70;2.00;;;;;;;;;;5031364;28;20190;-78
2022/11/23 08:07:20;;;;;;;14.03;2.97;;;;;;;;;;5016549;28;20174;-78
2022/11/23 08:09:45;;;;;;;10.53;2.20;;;;;;;;;;5014698;28;20222;-78
2022/11/23 08:12:10;;;;;;;9.53;2.20;;;;;;;;;;5021957;28;20682;-79
2022/11/23 08:14:36;;;;;;;7.17;1.60;;;;;;;;;;5021054;28;20844;-78
2022/11/23 08:17:01;;;;;;;10.57;2.63;;;;;;;;;;5024235;28;20182;-79
2022/11/23 08:19:26;;;;;;;7.53;1.63;;;;;;;;;;5024224;28;20681;-79
2022/11/23 08:21:51;;;;;;;6.97;2.20;;;;;;;;;;5026916;28;20542;-79
2022/11/23 08:24:16;;;;;;;14.37;4.47;;;;;;;;;;5022213;28;20231;-79
2022/11/23 08:26:42;;;;;;;13.20;3.40;;;;;;;;;;5022469;28;20194;-79
2022/11/23 08:29:07;;;;;;;11.10;2.70;;;;;;;;;;5010241;28;20225;-80
2022/11/23 08:31:32;;;;;;;8.10;2.13;;;;;;;;;;5004441;28;20213;-79
2022/11/23 08:33:57;;;;;;;10.53;2.23;;;;;;;;;;5027017;28;20216;-79
2022/11/23 08:36:22;;;;;;;13.20;2.50;;;;;;;;;;5012096;28;20183;-79
2022/11/23 08:38:50;;;;;;;10.70;2.77;;;;;;;;;;5027793;28;20194;-78
2022/11/23 08:41:19;;;;;;;13.00;3.00;;;;;;;;;;5008535;28;20285;-80
2022/11/23 08:43:44;;;;;;;7.47;2.20;;;;;;;;;;5029511;28;20573;-80
2022/11/23 08:46:09;;;;;;;12.00;2.37;;;;;;;;;;5012915;28;20190;-78
2022/11/23 08:48:34;;;;;;;9.50;2.10;;;;;;;;;;5010254;28;20209;-79
2022/11/23 08:51:00;;;;;;;13.43;2.33;;;;;;;;;;5026715;28;20228;-79
2022/11/23 08:53:25;;;;;;;7.73;2.30;;;;;;;;;;5012723;28;20667;-79
2022/11/23 08:55:51;;;;;;;9.07;2.20;;;;;;;;;;5005027;28;20166;-79
2022/11/23 08:58:16;;;;;;;9.67;2.27;;;;;;;;;;5017922;28;20203;-78
2022/11/23 09:00:41;;;;;;;14.60;2.20;;;;;;;;;;5002591;28;20197;-79
2022/11/23 09:03:06;;;;;;;13.63;2.10;;;;;;;;;;5021005;28;20775;-78
2022/11/23 09:05:31;;;;;;;10.60;2.90;;;;;;;;;;5023938;28;20201;-79
2022/11/23 09:08:00;;;;;;;7.27;2.50;;;;;;;;;;5023251;28;20205;-79
2022/11/23 09:10:25;;;;;;;12.70;2.83;;;;;;;;;;5021525;28;20660;-78
2022/11/23 09:12:50;;;;;;;7.87;2.47;;;;;;;;;;5025050;28;20185;-78
2022/11/23 09:15:15;;;;;;;5.83;1.80;;;;;;;;;;5021432;28;20175;-79
2022/11/23 09:17:41;;;;;;;10.40;3.80;;;;;;;;;;5023026;28;20198;-79
2022/11/23 09:20:06;;;;;;;6.07;1.73;;;;;;;;;;5007544;28;20201;-78
2022/11/23 09:22:33;;;;;;;8.50;2.30;;;;;;;;;;5007592;28;20296;-78
2022/11/23 09:24:58;;;;;;;8.57;2.20;;;;;;;;;;5008860;28;20218;-78
2022/11/23 09:27:23;;;;;;;19.03;4.47;;;;;;;;;;5008839;28;20629;-78
2022/11/23 09:29:48;;;;;;;6.43;2.50;;;;;;;;;;5027893;28;20313;-78
2022/11/23 09:32:14;;;;;;;9.97;2.63;;;;;;;;;;5027780;28;20237;-78
2022/11/23 09:34:39;;;;;;;11.60;2.88;;;;;;;;;;5029234;28;20182;-77
2022/11/23 09:37:04;;;;;;;8.52;1.90;;;;;;;;;;5020163;28;20186;-78
2022/11/23 09:39:30;;;;;;;6.73;2.30;;;;;;;;;;5021646;28;20210;-78
2022/11/23 09:42:14;;;;;;;11.37;3.80;;;;;;;;;;5006406;28;20236;-78
2022/11/23 09:44:42;;;;;;;10.27;3.15;;;;;;;;;;5026653;28;20201;-78
2022/11/23 09:47:29;;;;;;;8.65;2.33;;;;;;;;;;5022846;28;20175;-78
2022/11/23 09:50:06;;;;;;;8.03;2.03;;;;;;;;;;5021802;28;20197;-78
2022/11/23 09:52:32;;;;;;;4.45;1.67;;;;;;;;;;5006962;28;20699;-79
2022/11/23 09:54:59;;;;;;;12.27;2.05;;;;;;;;;;5012225;28;20182;-79
2022/11/23 09:57:27;;;;;;;8.43;1.90;;;;;;;;;;5006108;28;20197;-77
2022/11/23 10:00:06;;;;;;;8.57;1.88;;;;;;;;;;5028723;28;20473;-78
2022/11/23 10:02:35;;;;;;;8.02;1.80;;;;;;;;;;5025485;28;20567;-78
2022/11/23 10:05:02;;;;;;;6.88;2.95;;;;;;;;;;5019997;28;20186;-77
2022/11/23 10:07:37;;;;;;;7.75;2.75;;;;;;;;;;5024623;28;20265;-78
2022/11/23 10:10:17;;;;;;;6.43;2.03;;;;;;;;;;5009618;28;20244;-78
2022/11/23 10:13:01;;;;;;;9.97;2.37;;;;;;;;;;5016726;28;20581;-78
2022/11/23 10:15:30;;;;;;;9.18;3.03;;;;;;;;;;5024400;28;20174;-78
2022/11/23 10:18:14;;;;;;;6.25;1.85;;;;;;;;;;5019336;28;20198;-78
2022/11/23 10:20:49;;;;;;;8.43;2.85;;;;;;;;;;5022887;28;20178;-79
2022/11/23 10:23:23;;;;;;;7.07;1.83;;;;;;;;;;5008346;28;20180;-79
2022/11/23 10:25:50;;;;;;;8.50;2.42;;;;;;;;;;5006527;28;20224;-79
2022/11/23 10:28:17;;;;;;;8.57;2.88;;;;;;;;;;5007789;28;20694;-79
2022/11/23 10:30:44;;;;;;;6.60;1.65;;;;;;;;;;5025678;28;20652;-78
2022/11/23 10:33:29;;;;;;;8.63;2.47;;;;;;;;;;5024726;28;20179;-78
2022/11/23 10:35:54;;;;;;;7.00;2.90;;;;;;;;;;5025314;28;20229;-79
2022/11/23 10:38:20;;;;;;;9.18;2.17;;;;;;;;;;5010769;28;20206;-79
2022/11/23 10:40:58;;;;;;;6.68;2.10;;;;;;;;;;5006892;28;20597;-79
2022/11/23 10:43:25;;;;;;;6.07;1.90;;;;;;;;;;5023876;28;20186;-79
2022/11/23 10:45:50;;;;;;;4.53;1.60;;;;;;;;;;5026208;28;20660;-79
2022/11/23 10:48:35;;;;;;;6.97;2.27;;;;;;;;;;5011666;28;20256;-78
2022/11/23 10:51:15;;;;;;;8.47;2.10;;;;;;;;;;5019568;28;20186;-79
2022/11/23 10:53:41;;;;;;;5.90;2.53;;;;;;;;;;5023340;28;20178;-79
2022/11/23 10:56:10;;;;;;;10.70;1.83;;;;;;;;;;5018274;28;20658;-78
2022/11/23 10:58:43;;;;;;;6.73;1.73;;;;;;;;;;5015076;28;20214;-78
2022/11/23 11:01:13;;;;;;;8.27;1.77;;;;;;;;;;5020471;28;20257;-78
2022/11/23 11:03:38;;;;;;;3.13;1.83;;;;;;;;;;5011117;28;20554;-78
2022/11/23 11:06:03;;;;;;;5.70;1.77;;;;;;;;;;5017283;28;20189;-78
2022/11/23 11:08:30;;;;;;;5.97;2.67;;;;;;;;;;5019733;28;20650;-78
2022/11/23 11:11:00;;;;;;;6.43;2.50;;;;;;;;;;5021397;28;20226;-78
2022/11/23 11:13:51;;;;;;;6.87;1.83;;;;;;;;;;5016334;28;20215;-78
2022/11/23 11:16:18;;;;;;;7.83;2.03;;;;;;;;;;5013042;28;20182;-78
2022/11/23 11:18:44;;;;;;;9.90;2.43;;;;;;;;;;5016635;28;20207;-78
2022/11/23 11:21:18;;;;;;;8.20;2.70;;;;;;;;;;5017349;28;20175;-78
2022/11/23 11:23:46;;;;;;;6.93;2.50;;;;;;;;;;5023062;28;20185;-77
2022/11/23 11:26:18;;;;;;;8.07;2.20;;;;;;;;;;5020087;28;20781;-77
2022/11/23 11:28:46;;;;;;;7.47;2.70;;;;;;;;;;5019364;28;20207;-77
2022/11/23 11:31:50;;;;;;;3.27;1.87;;;;;;;;;;5027153;28;20240;-77
2022/11/23 11:34:35;;;;;;;6.57;2.30;;;;;;;;;;4952473;29;20197;-77
2022/11/23 11:37:03;;;;;;;15.07;2.07;;;;;;;;;;4950038;29;20275;-78
2022/11/23 11:39:41;;;;;;;7.73;1.90;;;;;;;;;;4993728;28;20221;-80
2022/11/23 11:42:10;;;;;;;5.43;2.53;;;;;;;;;;5011734;28;20210;-78
2022/11/23 11:44:39;;;;;;;16.13;3.37;;;;;;;;;;5012848;28;20178;-78
2022/11/23 11:47:24;;;;;;;6.13;1.60;;;;;;;;;;5028843;28;20249;-80
2022/11/23 11:49:52;;;;;;;6.33;1.53;;;;;;;;;;5022883;28;20186;-79
2022/11/23 11:52:20;;;;;;;10.97;2.27;;;;;;;;;;5025292;28;20170;-79
2022/11/23 11:54:50;;;;;;;6.77;1.50;;;;;;;;;;5012290;28;20220;-79
2022/11/23 11:57:54;;;;;;;6.17;1.50;;;;;;;;;;5029909;28;20702;-79
2022/11/23 12:00:20;;;;;;;5.17;1.80;;;;;;;;;;4941745;29;20690;-79
2022/11/23 12:02:54;;;;;;;4.57;1.43;;;;;;;;;;4941177;29;20180;-79
2022/11/23 12:05:22;;;;;;;5.93;1.20;;;;;;;;;;4985272;28;20574;-78
2022/11/23 12:07:54;;;;;;;7.82;2.10;;;;;;;;;;5027292;28;20205;-78
2022/11/23 12:10:32;;;;;;;6.17;1.50;;;;;;;;;;5025848;28;20545;-78
2022/11/23 12:12:58;;;;;;;3.85;1.20;;;;;;;;;;5012174;28;20178;-80
2022/11/23 12:15:26;;;;;;;4.47;1.40;;;;;;;;;;5020726;28;20213;-78
2022/11/23 12:17:54;;;;;;;4.93;1.30;;;;;;;;;;5024109;28;20210;-78
2022/11/23 12:20:22;;;;;;;5.50;1.10;;;;;;;;;;5019457;28;20261;-77
2022/11/23 12:23:06;;;;;;;5.80;1.93;;;;;;;;;;5027743;28;20220;-78
2022/11/23 12:25:35;;;;;;;9.40;1.30;;;;;;;;;;5026627;28;20190;-78
2022/11/23 12:28:00;;;;;;;8.60;3.20;;;;;;;;;;5025489;28;20216;-78
2022/11/23 12:30:46;;;;;;;4.90;1.60;;;;;;;;;;5007703;28;20186;-78
2022/11/23 12:33:38;;;;;;;5.57;1.27;;;;;;;;;;5006774;28;20197;-80
2022/11/23 12:36:03;;;;;;;7.77;2.00;;;;;;;;;;5007514;28;20186;-78
2022/11/23 12:38:53;;;;;;;5.50;1.73;;;;;;;;;;5014339;28;20199;-78
2022/11/23 12:41:27;;;;;;;5.47;1.77;;;;;;;;;;5009107;28;20182;-78
2022/11/23 12:43:55;;;;;;;2.67;1.47;;;;;;;;;;5012125;28;20261;-78
2022/11/23 12:46:23;;;;;;;4.10;1.77;;;;;;;;;;5027750;28;20182;-79
2022/11/23 12:48:52;;;;;;;2.93;1.20;;;;;;;;;;5008316;28;20206;-78
2022/11/23 12:51:29;;;;;;;2.43;1.03;;;;;;;;;;5018294;28;20183;-78
2022/11/23 12:54:00;;;;;;;4.47;1.10;;;;;;;;;;5023836;28;20181;-79
2022/11/23 12:56:25;;;;;;;6.10;1.70;;;;;;;;;;5009983;28;20229;-78
2022/11/23 12:58:51;;;;;;;5.10;2.07;;;;;;;;;;5020417;28;20213;-78
2022/11/23 13:01:20;;;;;;;3.23;1.10;;;;;;;;;;5016369;28;20560;-78
2022/11/23 13:03:45;;;;;;;8.07;2.00;;;;;;;;;;5022887;28;20175;-80
2022/11/23 13:06:10;;;;;;;6.50;2.67;;;;;;;;;;5012584;28;20236;-79
2022/11/23 13:09:08;;;;;;;3.67;1.20;;;;;;;;;;5026219;28;20241;-79
2022/11/23 13:11:51;;;;;;;3.37;1.20;;;;;;;;;;4986961;28;20185;-78
2022/11/23 13:14:17;;;;;;;3.50;0.93;;;;;;;;;;5023044;28;20562;-78
2022/11/23 13:17:02;;;;;;;3.07;0.90;;;;;;;;;;5026337;28;20175;-78
2022/11/23 13:20:03;;;;;;;3.73;1.20;;;;;;;;;;4995812;28;20566;-78
2022/11/23 13:22:29;;;;;;;3.57;0.90;;;;;;;;;;4963995;28;20180;-78
2022/11/23 13:25:21;;;;;;;5.63;1.03;;;;;;;;;;5004218;28;20190;-78
2022/11/23 13:27:49;;;;;;;5.53;1.30;;;;;;;;;;5018842;28;20612;-79
2022/11/23 13:30:36;;;;;;;4.73;1.17;;;;;;;;;;5025558;28;20638;-80
2022/11/23 13:33:21;;;;;;;4.50;1.13;;;;;;;;;;5015924;28;20722;-82
2022/11/23 13:35:49;;;;;;;6.70;1.40;;;;;;;;;;5029146;28;20180;-81
2022/11/23 13:38:14;;;;;;;2.90;1.07;;;;;;;;;;5007276;28;20207;-81
2022/11/23 13:40:43;;;;;;;4.90;1.03;;;;;;;;;;5031528;28;20208;-81
2022/11/23 13:43:14;;;;;;;3.00;0.80;;;;;;;;;;5025359;28;20183;-82
2022/11/23 13:45:39;;;;;;;7.10;1.50;;;;;;;;;;5030036;28;20175;-82
2022/11/23 13:48:07;;;;;;;4.50;1.80;;;;;;;;;;5018973;28;20268;-81
2022/11/23 13:50:33;;;;;;;4.47;0.93;;;;;;;;;;5023033;28;20243;-81
2022/11/23 13:52:58;;;;;;;11.37;1.93;;;;;;;;;;5032811;28;20194;-82
2022/11/23 13:55:34;;;;;;;5.40;1.83;;;;;;;;;;5018446;28;20198;-81
2022/11/23 13:58:18;;;;;;;5.57;1.40;;;;;;;;;;5017271;28;20209;-81
2022/11/23 14:00:43;;;;;;;4.70;2.37;;;;;;;;;;5022601;28;20166;-81
2022/11/23 14:03:27;;;;;;;5.47;1.40;;;;;;;;;;5005205;28;20266;-80
2022/11/23 14:05:55;;;;;;;4.03;1.50;;;;;;;;;;5018120;28;20179;-81
2022/11/23 14:08:20;;;;;;;4.67;1.40;;;;;;;;;;5021544;28;20747;-82
2022/11/23 14:10:46;;;;;;;3.03;1.50;;;;;;;;;;5022577;28;20186;-81
2022/11/23 14:13:16;;;;;;;11.43;1.50;;;;;;;;;;5021031;28;20189;-82
2022/11/23 14:15:43;;;;;;;5.73;1.30;;;;;;;;;;5029259;28;20186;-82
2022/11/23 14:18:24;;;;;;;2.10;1.40;;;;;;;;;;5014438;28;20289;-83
2022/11/23 14:20:55;;;;;;;4.00;1.17;;;;;;;;;;5031688;28;20210;-83
2022/11/23 14:23:30;;;;;;;6.47;1.70;;;;;;;;;;5035014;28;20182;-83
2022/11/23 14:25:55;;;;;;;6.13;1.37;;;;;;;;;;5029665;28;20189;-83
2022/11/23 14:28:32;;;;;;;4.60;1.43;;;;;;;;;;5028308;28;20205;-82
2022/11/23 14:31:16;;;;;;;2.97;1.47;;;;;;;;;;5029346;28;20183;-83
2022/11/23 14:33:54;;;;;;;5.37;1.63;;;;;;;;;;5033112;28;20170;-83
2022/11/23 14:36:29;;;;;;;2.57;1.27;;;;;;;;;;5024546;28;20175;-82
2022/11/23 14:39:15;;;;;;;2.93;1.30;;;;;;;;;;5035695;28;20244;-82